NKS1152 KIAH-KMCO
Flight info
| Callsign | NKS1152 |
|---|---|
| Flight time | 1h 47m |
| Altitude | 35000 |
| Route | GUMBY3 LLA LEV Y280 CHRGE PRICY5 |
| Aircraft | A321/M-SDE3FGHIRWY/LB1 |
Departure
| Time | 2026-04-20 04:07 |
|---|---|
| Airport | George Bush Intercontinental Airport (KIAH) |
Arrival
| Time | 2026-04-20 05:55 |
|---|---|
| Airport | Orlando International Airport (KMCO) |
| Time | Latitude | Longitude | Altitude | Speed | Heading |
|---|---|---|---|---|---|
| 2026-04-20 03:19 | 29.98558 | -95.34891 | 113 ft | 0 kts | 270° |
| 2026-04-20 03:53 | 29.98558 | -95.34887 | 112 ft | 3 kts | 272° |
| 2026-04-20 03:53 | 29.98550 | -95.34873 | 109 ft | 4 kts | 339° |
| 2026-04-20 03:53 | 29.98526 | -95.34861 | 111 ft | 4 kts | 318° |
| 2026-04-20 03:54 | 29.98516 | -95.34841 | 109 ft | 4 kts | 255° |
| 2026-04-20 03:54 | 29.98528 | -95.34827 | 111 ft | 3 kts | 182° |
| 2026-04-20 03:54 | 29.98549 | -95.34826 | 111 ft | 2 kts | 180° |
| 2026-04-20 03:54 | 29.98551 | -95.34826 | 111 ft | 0 kts | 180° |
| 2026-04-20 04:00 | 29.98530 | -95.34826 | 111 ft | 5 kts | 180° |
| 2026-04-20 04:01 | 29.98476 | -95.34827 | 112 ft | 10 kts | 180° |
| 2026-04-20 04:01 | 29.98397 | -95.34827 | 112 ft | 5 kts | 181° |
| 2026-04-20 04:01 | 29.98378 | -95.34880 | 112 ft | 11 kts | 270° |
| 2026-04-20 04:01 | 29.98380 | -95.34992 | 112 ft | 17 kts | 270° |
| 2026-04-20 04:02 | 29.98380 | -95.35141 | 112 ft | 16 kts | 270° |
| 2026-04-20 04:02 | 29.98417 | -95.35223 | 112 ft | 15 kts | 329° |
| 2026-04-20 04:02 | 29.98517 | -95.35284 | 112 ft | 18 kts | 332° |
| 2026-04-20 04:02 | 29.98641 | -95.35360 | 112 ft | 22 kts | 332° |
| 2026-04-20 04:03 | 29.98787 | -95.35450 | 112 ft | 25 kts | 332° |
| 2026-04-20 04:03 | 29.98883 | -95.35527 | 111 ft | 15 kts | 291° |
| 2026-04-20 04:03 | 29.98843 | -95.35642 | 111 ft | 10 kts | 244° |
| 2026-04-20 04:03 | 29.98828 | -95.35676 | 111 ft | 0 kts | 243° |
| 2026-04-20 04:05 | 29.98826 | -95.35681 | 112 ft | 3 kts | 243° |
| 2026-04-20 04:05 | 29.98804 | -95.35727 | 113 ft | 10 kts | 238° |
| 2026-04-20 04:06 | 29.98754 | -95.35762 | 114 ft | 7 kts | 169° |
| 2026-04-20 04:06 | 29.98728 | -95.35747 | 114 ft | 0 kts | 152° |
| 2026-04-20 04:06 | 29.98725 | -95.35745 | 114 ft | 8 kts | 152° |
| 2026-04-20 04:06 | 29.98467 | -95.35587 | 113 ft | 74 kts | 152° |
| 2026-04-20 04:07 | 29.97838 | -95.35206 | 113 ft | 128 kts | 152° |
| 2026-04-20 04:07 | 29.96906 | -95.34634 | 113 ft | 172 kts | 152° |
| 2026-04-20 04:07 | 29.95825 | -95.33964 | 531 ft | 175 kts | 150° |
| 2026-04-20 04:07 | 29.94844 | -95.33131 | 1117 ft | 177 kts | 128° |
| 2026-04-20 04:08 | 29.94343 | -95.31783 | 1335 ft | 200 kts | 96° |
| 2026-04-20 04:08 | 29.94245 | -95.30077 | 1523 ft | 222 kts | 93° |
| 2026-04-20 04:08 | 29.94084 | -95.28296 | 2262 ft | 224 kts | 96° |
| 2026-04-20 04:08 | 29.93883 | -95.26504 | 2988 ft | 226 kts | 96° |
| 2026-04-20 04:09 | 29.93700 | -95.24738 | 3584 ft | 224 kts | 94° |
| 2026-04-20 04:09 | 29.93687 | -95.22862 | 3929 ft | 244 kts | 89° |
| 2026-04-20 04:09 | 29.93727 | -95.20860 | 4014 ft | 251 kts | 89° |
| 2026-04-20 04:09 | 29.93765 | -95.18858 | 4014 ft | 252 kts | 89° |
| 2026-04-20 04:10 | 29.93800 | -95.16830 | 4001 ft | 252 kts | 89° |
| 2026-04-20 04:10 | 29.93831 | -95.14813 | 3992 ft | 251 kts | 89° |
| 2026-04-20 04:10 | 29.93864 | -95.12814 | 3985 ft | 251 kts | 89° |
| 2026-04-20 04:10 | 29.93895 | -95.10796 | 4112 ft | 251 kts | 89° |
| 2026-04-20 04:11 | 29.93921 | -95.08779 | 4681 ft | 257 kts | 91° |
| 2026-04-20 04:11 | 29.93679 | -95.06713 | 5305 ft | 262 kts | 107° |
| 2026-04-20 04:11 | 29.93098 | -95.04698 | 5949 ft | 266 kts | 110° |
| 2026-04-20 04:11 | 29.92481 | -95.02687 | 6553 ft | 271 kts | 110° |
| 2026-04-20 04:12 | 29.91847 | -95.00603 | 7122 ft | 277 kts | 109° |
| 2026-04-20 04:12 | 29.91210 | -94.98482 | 7693 ft | 282 kts | 109° |
| 2026-04-20 04:12 | 29.90566 | -94.96327 | 8278 ft | 286 kts | 109° |
| 2026-04-20 04:12 | 29.89924 | -94.94170 | 8852 ft | 290 kts | 109° |
| 2026-04-20 04:13 | 29.89263 | -94.91944 | 9443 ft | 295 kts | 109° |
| 2026-04-20 04:13 | 29.88597 | -94.89695 | 10033 ft | 299 kts | 109° |
| 2026-04-20 04:13 | 29.87910 | -94.87378 | 10390 ft | 312 kts | 109° |
| 2026-04-20 04:13 | 29.87188 | -94.84947 | 10629 ft | 328 kts | 109° |
| 2026-04-20 04:14 | 29.86444 | -94.82438 | 10840 ft | 343 kts | 109° |
| 2026-04-20 04:14 | 29.85652 | -94.79769 | 11095 ft | 357 kts | 109° |
| 2026-04-20 04:14 | 29.84838 | -94.77030 | 11532 ft | 364 kts | 109° |
| 2026-04-20 04:14 | 29.84013 | -94.74255 | 12060 ft | 367 kts | 109° |
| 2026-04-20 04:15 | 29.83188 | -94.71482 | 12576 ft | 371 kts | 109° |
| 2026-04-20 04:15 | 29.82345 | -94.68647 | 13093 ft | 375 kts | 109° |
| 2026-04-20 04:15 | 29.81492 | -94.65781 | 13604 ft | 380 kts | 109° |
| 2026-04-20 04:15 | 29.80625 | -94.62881 | 14098 ft | 384 kts | 109° |
| 2026-04-20 04:16 | 29.79761 | -94.59991 | 14538 ft | 388 kts | 109° |
| 2026-04-20 04:16 | 29.78876 | -94.57030 | 14981 ft | 392 kts | 109° |
| 2026-04-20 04:16 | 29.77985 | -94.54047 | 15422 ft | 396 kts | 109° |
| 2026-04-20 04:16 | 29.77089 | -94.51057 | 15862 ft | 400 kts | 109° |
| 2026-04-20 04:17 | 29.76173 | -94.48001 | 16297 ft | 404 kts | 109° |
| 2026-04-20 04:17 | 29.75251 | -94.44926 | 16730 ft | 408 kts | 109° |
| 2026-04-20 04:17 | 29.74319 | -94.41822 | 17159 ft | 412 kts | 109° |
| 2026-04-20 04:17 | 29.73388 | -94.38727 | 17574 ft | 415 kts | 109° |
| 2026-04-20 04:18 | 29.72440 | -94.35544 | 17993 ft | 419 kts | 107° |
| 2026-04-20 04:18 | 29.71792 | -94.32256 | 18393 ft | 422 kts | 97° |
| 2026-04-20 04:18 | 29.71407 | -94.28890 | 18770 ft | 426 kts | 95° |
| 2026-04-20 04:18 | 29.71052 | -94.25523 | 19125 ft | 429 kts | 96° |
| 2026-04-20 04:19 | 29.70684 | -94.22081 | 19489 ft | 433 kts | 96° |
| 2026-04-20 04:19 | 29.70314 | -94.18677 | 19837 ft | 436 kts | 96° |
| 2026-04-20 04:19 | 29.69926 | -94.15186 | 20214 ft | 439 kts | 96° |
| 2026-04-20 04:19 | 29.69532 | -94.11684 | 20563 ft | 442 kts | 97° |
| 2026-04-20 04:20 | 29.69137 | -94.08183 | 20903 ft | 445 kts | 97° |
| 2026-04-20 04:20 | 29.68742 | -94.04620 | 21255 ft | 449 kts | 95° |
| 2026-04-20 04:20 | 29.68589 | -94.01029 | 21589 ft | 451 kts | 90° |
| 2026-04-20 04:20 | 29.68558 | -93.97397 | 21934 ft | 454 kts | 89° |
| 2026-04-20 04:21 | 29.68541 | -93.93791 | 22265 ft | 457 kts | 89° |
| 2026-04-20 04:21 | 29.68519 | -93.90115 | 22595 ft | 460 kts | 90° |
| 2026-04-20 04:21 | 29.68492 | -93.86419 | 22923 ft | 463 kts | 90° |
| 2026-04-20 04:21 | 29.68456 | -93.82681 | 23246 ft | 466 kts | 90° |
| 2026-04-20 04:22 | 29.68421 | -93.78981 | 23557 ft | 469 kts | 90° |
| 2026-04-20 04:22 | 29.68379 | -93.75203 | 23868 ft | 472 kts | 90° |
| 2026-04-20 04:22 | 29.68343 | -93.71393 | 24136 ft | 475 kts | 90° |
| 2026-04-20 04:22 | 29.68307 | -93.67616 | 24399 ft | 477 kts | 90° |
| 2026-04-20 04:23 | 29.68263 | -93.63772 | 24658 ft | 480 kts | 90° |
| 2026-04-20 04:23 | 29.68225 | -93.59962 | 24900 ft | 482 kts | 90° |
| 2026-04-20 04:23 | 29.68188 | -93.56091 | 25135 ft | 484 kts | 90° |
| 2026-04-20 04:23 | 29.68140 | -93.52194 | 25373 ft | 486 kts | 91° |
| 2026-04-20 04:24 | 29.68087 | -93.48322 | 25601 ft | 489 kts | 91° |
| 2026-04-20 04:24 | 29.68037 | -93.44394 | 25826 ft | 491 kts | 91° |
| 2026-04-20 04:24 | 29.67982 | -93.40433 | 26055 ft | 493 kts | 91° |
| 2026-04-20 04:24 | 29.67933 | -93.36475 | 26272 ft | 496 kts | 91° |
| 2026-04-20 04:25 | 29.67888 | -93.32550 | 26492 ft | 498 kts | 91° |
| 2026-04-20 04:25 | 29.67833 | -93.28547 | 26714 ft | 500 kts | 91° |
| 2026-04-20 04:25 | 29.67780 | -93.24573 | 26916 ft | 502 kts | 91° |
| 2026-04-20 04:25 | 29.67728 | -93.20530 | 27139 ft | 504 kts | 91° |
| 2026-04-20 04:26 | 29.67671 | -93.16478 | 27349 ft | 506 kts | 91° |
| 2026-04-20 04:26 | 29.67607 | -93.12471 | 27560 ft | 508 kts | 91° |
| 2026-04-20 04:26 | 29.67545 | -93.08380 | 27764 ft | 510 kts | 91° |
| 2026-04-20 04:26 | 29.67483 | -93.04271 | 27967 ft | 512 kts | 91° |
| 2026-04-20 04:27 | 29.67415 | -93.00205 | 28172 ft | 514 kts | 91° |
| 2026-04-20 04:27 | 29.67341 | -92.96074 | 28353 ft | 516 kts | 92° |
| 2026-04-20 04:27 | 29.67268 | -92.91993 | 28555 ft | 517 kts | 92° |
| 2026-04-20 04:27 | 29.67196 | -92.87823 | 28766 ft | 519 kts | 92° |
| 2026-04-20 04:28 | 29.67132 | -92.83693 | 28972 ft | 520 kts | 92° |
| 2026-04-20 04:28 | 29.67063 | -92.79515 | 29165 ft | 522 kts | 92° |
| 2026-04-20 04:28 | 29.66992 | -92.75324 | 29362 ft | 523 kts | 92° |
| 2026-04-20 04:28 | 29.66918 | -92.71168 | 29564 ft | 525 kts | 92° |
| 2026-04-20 04:29 | 29.66852 | -92.66967 | 29760 ft | 526 kts | 92° |
| 2026-04-20 04:29 | 29.66791 | -92.62748 | 29954 ft | 527 kts | 92° |
| 2026-04-20 04:29 | 29.66716 | -92.58515 | 30136 ft | 528 kts | 92° |
| 2026-04-20 04:29 | 29.66636 | -92.54329 | 30363 ft | 528 kts | 92° |
| 2026-04-20 04:30 | 29.66552 | -92.50100 | 30573 ft | 528 kts | 92° |
| 2026-04-20 04:30 | 29.66473 | -92.45864 | 30757 ft | 528 kts | 92° |
| 2026-04-20 04:30 | 29.66391 | -92.41643 | 30943 ft | 528 kts | 92° |
| 2026-04-20 04:30 | 29.66196 | -92.37477 | 31100 ft | 526 kts | 99° |
| 2026-04-20 04:31 | 29.65500 | -92.33349 | 31263 ft | 524 kts | 106° |
| 2026-04-20 04:31 | 29.64645 | -92.29256 | 31434 ft | 524 kts | 107° |
| 2026-04-20 04:31 | 29.63790 | -92.25214 | 31606 ft | 524 kts | 107° |
| 2026-04-20 04:31 | 29.62935 | -92.21128 | 31772 ft | 525 kts | 106° |
| 2026-04-20 04:32 | 29.62094 | -92.17071 | 31927 ft | 525 kts | 106° |
| 2026-04-20 04:32 | 29.61240 | -92.12963 | 32093 ft | 526 kts | 107° |
| 2026-04-20 04:32 | 29.60390 | -92.08910 | 32254 ft | 526 kts | 107° |
| 2026-04-20 04:32 | 29.59531 | -92.04809 | 32407 ft | 526 kts | 107° |
| 2026-04-20 04:33 | 29.58675 | -92.00704 | 32561 ft | 527 kts | 107° |
| 2026-04-20 04:33 | 29.57822 | -91.96597 | 32717 ft | 527 kts | 107° |
| 2026-04-20 04:33 | 29.56969 | -91.92496 | 32852 ft | 527 kts | 107° |
| 2026-04-20 04:33 | 29.56119 | -91.88443 | 33002 ft | 528 kts | 107° |
| 2026-04-20 04:34 | 29.55257 | -91.84319 | 33155 ft | 528 kts | 107° |
| 2026-04-20 04:34 | 29.54419 | -91.80258 | 33293 ft | 528 kts | 107° |
| 2026-04-20 04:34 | 29.53565 | -91.76132 | 33445 ft | 529 kts | 107° |
| 2026-04-20 04:34 | 29.52703 | -91.72012 | 33586 ft | 529 kts | 107° |
| 2026-04-20 04:35 | 29.51842 | -91.67950 | 33722 ft | 529 kts | 107° |
| 2026-04-20 04:35 | 29.50961 | -91.63820 | 33856 ft | 529 kts | 107° |
| 2026-04-20 04:35 | 29.50069 | -91.59691 | 33993 ft | 530 kts | 107° |
| 2026-04-20 04:35 | 29.49196 | -91.55635 | 34120 ft | 530 kts | 107° |
| 2026-04-20 04:36 | 29.47433 | -91.47378 | 34342 ft | 531 kts | 107° |
| 2026-04-20 04:36 | 29.46564 | -91.43295 | 34441 ft | 532 kts | 107° |
| 2026-04-20 04:36 | 29.45678 | -91.39151 | 34546 ft | 532 kts | 107° |
| 2026-04-20 04:37 | 29.44801 | -91.35010 | 34645 ft | 533 kts | 107° |
| 2026-04-20 04:37 | 29.43062 | -91.26769 | 34833 ft | 533 kts | 107° |
| 2026-04-20 04:38 | 29.41287 | -91.18490 | 35019 ft | 534 kts | 107° |
| 2026-04-20 04:38 | 29.40395 | -91.14352 | 35125 ft | 534 kts | 107° |
| 2026-04-20 04:38 | 29.39504 | -91.10215 | 35228 ft | 534 kts | 107° |
| 2026-04-20 04:39 | 29.37726 | -91.02003 | 35347 ft | 531 kts | 107° |
| 2026-04-20 04:39 | 29.35929 | -90.93758 | 35320 ft | 531 kts | 107° |
| 2026-04-20 04:40 | 29.34152 | -90.85574 | 35312 ft | 531 kts | 107° |
| 2026-04-20 04:40 | 29.32361 | -90.77380 | 35311 ft | 531 kts | 107° |
| 2026-04-20 04:41 | 29.30570 | -90.69206 | 35309 ft | 530 kts | 108° |
| 2026-04-20 04:41 | 29.28763 | -90.60989 | 35308 ft | 530 kts | 108° |
| 2026-04-20 04:42 | 29.26960 | -90.52822 | 35310 ft | 530 kts | 108° |
| 2026-04-20 04:42 | 29.25145 | -90.44629 | 35311 ft | 529 kts | 108° |
| 2026-04-20 04:43 | 29.23329 | -90.36472 | 35310 ft | 529 kts | 108° |
| 2026-04-20 04:43 | 29.21526 | -90.28346 | 35313 ft | 529 kts | 108° |
| 2026-04-20 04:44 | 29.20004 | -90.21542 | 35308 ft | 528 kts | 108° |
| 2026-04-20 04:44 | 29.17882 | -90.12052 | 35307 ft | 528 kts | 108° |
| 2026-04-20 04:45 | 29.16183 | -90.03902 | 35298 ft | 528 kts | 107° |
| 2026-04-20 04:45 | 29.14796 | -89.97077 | 35300 ft | 528 kts | 107° |
| 2026-04-20 04:46 | 29.13139 | -89.88921 | 35295 ft | 527 kts | 107° |
| 2026-04-20 04:46 | 29.11460 | -89.80757 | 35298 ft | 526 kts | 107° |
| 2026-04-20 04:47 | 29.09775 | -89.72587 | 35298 ft | 526 kts | 107° |
| 2026-04-20 04:47 | 29.08118 | -89.64484 | 35290 ft | 526 kts | 107° |
| 2026-04-20 04:48 | 29.06434 | -89.56331 | 35293 ft | 525 kts | 107° |
| 2026-04-20 04:48 | 29.04755 | -89.48243 | 35291 ft | 525 kts | 107° |
| 2026-04-20 04:49 | 29.03067 | -89.40114 | 35290 ft | 524 kts | 107° |
| 2026-04-20 04:49 | 29.01365 | -89.32008 | 35287 ft | 523 kts | 108° |
| 2026-04-20 04:50 | 28.99656 | -89.23945 | 35288 ft | 523 kts | 107° |
| 2026-04-20 04:50 | 28.97957 | -89.15895 | 35285 ft | 523 kts | 107° |
| 2026-04-20 04:51 | 28.96240 | -89.07791 | 35288 ft | 523 kts | 108° |
| 2026-04-20 04:51 | 28.94533 | -88.99750 | 35286 ft | 523 kts | 108° |
| 2026-04-20 04:52 | 28.92835 | -88.91690 | 35282 ft | 523 kts | 108° |
| 2026-04-20 04:52 | 28.91120 | -88.83607 | 35279 ft | 522 kts | 108° |
| 2026-04-20 04:53 | 28.89393 | -88.75532 | 35278 ft | 522 kts | 108° |
| 2026-04-20 04:53 | 28.87531 | -88.67561 | 35284 ft | 519 kts | 112° |
| 2026-04-20 04:54 | 28.85366 | -88.59727 | 35271 ft | 519 kts | 112° |
| 2026-04-20 04:54 | 28.83185 | -88.51877 | 35277 ft | 518 kts | 112° |
| 2026-04-20 04:55 | 28.81020 | -88.44069 | 35276 ft | 518 kts | 112° |
| 2026-04-20 04:55 | 28.78826 | -88.36215 | 35274 ft | 518 kts | 112° |
| 2026-04-20 04:56 | 28.76673 | -88.28400 | 35271 ft | 518 kts | 112° |
| 2026-04-20 04:56 | 28.74483 | -88.20546 | 35272 ft | 518 kts | 112° |
| 2026-04-20 04:57 | 28.72302 | -88.12767 | 35267 ft | 518 kts | 112° |
| 2026-04-20 04:57 | 28.70098 | -88.04932 | 35264 ft | 517 kts | 112° |
| 2026-04-20 04:58 | 28.67892 | -87.97121 | 35264 ft | 517 kts | 112° |
| 2026-04-20 04:58 | 28.65695 | -87.89369 | 35260 ft | 517 kts | 112° |
| 2026-04-20 04:59 | 28.63490 | -87.81593 | 35256 ft | 516 kts | 112° |
| 2026-04-20 04:59 | 28.61295 | -87.73848 | 35254 ft | 515 kts | 112° |
| 2026-04-20 05:00 | 28.59083 | -87.66061 | 35253 ft | 515 kts | 112° |
| 2026-04-20 05:00 | 28.56877 | -87.58341 | 35253 ft | 514 kts | 112° |
| 2026-04-20 05:01 | 28.54665 | -87.50601 | 35255 ft | 514 kts | 112° |
| 2026-04-20 05:01 | 28.52458 | -87.42903 | 35250 ft | 514 kts | 112° |
| 2026-04-20 05:02 | 28.50233 | -87.35176 | 35244 ft | 514 kts | 112° |
| 2026-04-20 05:02 | 28.47998 | -87.27413 | 35253 ft | 515 kts | 112° |
| 2026-04-20 05:03 | 28.45766 | -87.19713 | 35246 ft | 515 kts | 112° |
| 2026-04-20 05:03 | 28.43539 | -87.11999 | 35246 ft | 516 kts | 111° |
| 2026-04-20 05:04 | 28.41289 | -87.04241 | 35241 ft | 516 kts | 111° |
| 2026-04-20 05:04 | 28.39040 | -86.96526 | 35245 ft | 516 kts | 112° |
| 2026-04-20 05:05 | 28.36769 | -86.88756 | 35235 ft | 516 kts | 112° |
| 2026-04-20 05:05 | 28.34515 | -86.81048 | 35239 ft | 516 kts | 111° |
| 2026-04-20 05:06 | 28.32254 | -86.73331 | 35238 ft | 516 kts | 111° |
| 2026-04-20 05:06 | 28.29993 | -86.65584 | 35236 ft | 516 kts | 111° |
| 2026-04-20 05:07 | 28.27742 | -86.57877 | 35232 ft | 516 kts | 111° |
| 2026-04-20 05:07 | 28.25463 | -86.50127 | 35234 ft | 516 kts | 111° |
| 2026-04-20 05:08 | 28.23208 | -86.42400 | 35231 ft | 516 kts | 111° |
| 2026-04-20 05:08 | 28.20951 | -86.34706 | 35232 ft | 516 kts | 111° |
| 2026-04-20 05:09 | 28.18688 | -86.27010 | 35233 ft | 516 kts | 111° |
| 2026-04-20 05:09 | 28.16399 | -86.19274 | 35230 ft | 516 kts | 111° |
| 2026-04-20 05:10 | 28.14104 | -86.11545 | 35230 ft | 516 kts | 111° |
| 2026-04-20 05:10 | 28.11824 | -86.03869 | 35227 ft | 516 kts | 111° |
| 2026-04-20 05:11 | 28.09546 | -85.96181 | 35221 ft | 516 kts | 111° |
| 2026-04-20 05:11 | 28.07247 | -85.88443 | 35219 ft | 517 kts | 111° |
| 2026-04-20 05:12 | 28.04962 | -85.80764 | 35217 ft | 517 kts | 111° |
| 2026-04-20 05:12 | 28.02650 | -85.73035 | 35218 ft | 517 kts | 111° |
| 2026-04-20 05:13 | 28.00344 | -85.65360 | 35207 ft | 516 kts | 111° |
| 2026-04-20 05:13 | 27.98037 | -85.57678 | 35210 ft | 516 kts | 111° |
| 2026-04-20 05:14 | 27.95717 | -85.49978 | 35210 ft | 515 kts | 111° |
| 2026-04-20 05:14 | 27.93410 | -85.42346 | 35205 ft | 515 kts | 111° |
| 2026-04-20 05:15 | 27.91098 | -85.34704 | 35202 ft | 515 kts | 111° |
| 2026-04-20 05:15 | 27.88783 | -85.27021 | 35197 ft | 515 kts | 109° |
| 2026-04-20 05:16 | 27.87256 | -85.19134 | 35200 ft | 516 kts | 101° |
| 2026-04-20 05:16 | 27.85942 | -85.11164 | 35197 ft | 516 kts | 101° |
| 2026-04-20 05:17 | 27.84601 | -85.03163 | 35195 ft | 516 kts | 101° |
| 2026-04-20 05:17 | 27.83260 | -84.95231 | 35191 ft | 517 kts | 101° |
| 2026-04-20 05:18 | 27.81914 | -84.87272 | 35190 ft | 516 kts | 101° |
| 2026-04-20 05:18 | 27.81364 | -84.79199 | 35185 ft | 514 kts | 86° |
| 2026-04-20 05:19 | 27.81775 | -84.71133 | 35186 ft | 512 kts | 85° |
| 2026-04-20 05:19 | 27.82182 | -84.63149 | 35185 ft | 509 kts | 85° |
| 2026-04-20 05:20 | 27.82565 | -84.55211 | 35183 ft | 508 kts | 85° |
| 2026-04-20 05:20 | 27.82936 | -84.47154 | 35192 ft | 515 kts | 85° |
| 2026-04-20 05:21 | 27.83306 | -84.39109 | 35181 ft | 516 kts | 85° |
| 2026-04-20 05:21 | 27.83678 | -84.30983 | 35182 ft | 516 kts | 85° |
| 2026-04-20 05:22 | 27.84039 | -84.22902 | 35178 ft | 517 kts | 85° |
| 2026-04-20 05:22 | 27.84220 | -84.18833 | 35033 ft | 515 kts | 85° |
| 2026-04-20 05:22 | 27.84395 | -84.14812 | 34732 ft | 519 kts | 85° |
| 2026-04-20 05:22 | 27.84570 | -84.10732 | 34480 ft | 520 kts | 85° |
| 2026-04-20 05:23 | 27.84748 | -84.06639 | 34246 ft | 521 kts | 85° |
| 2026-04-20 05:23 | 27.84922 | -84.02549 | 34007 ft | 521 kts | 86° |
| 2026-04-20 05:23 | 27.85094 | -83.98447 | 33741 ft | 520 kts | 86° |
| 2026-04-20 05:23 | 27.85263 | -83.94404 | 33484 ft | 518 kts | 86° |
| 2026-04-20 05:24 | 27.85434 | -83.90325 | 33212 ft | 515 kts | 86° |
| 2026-04-20 05:24 | 27.85605 | -83.86283 | 32966 ft | 512 kts | 86° |
| 2026-04-20 05:24 | 27.85770 | -83.82312 | 32712 ft | 510 kts | 86° |
| 2026-04-20 05:24 | 27.85936 | -83.78311 | 32460 ft | 507 kts | 86° |
| 2026-04-20 05:25 | 27.86100 | -83.74333 | 32212 ft | 505 kts | 86° |
| 2026-04-20 05:25 | 27.86262 | -83.70372 | 31972 ft | 502 kts | 86° |
| 2026-04-20 05:25 | 27.86424 | -83.66431 | 31681 ft | 499 kts | 86° |
| 2026-04-20 05:25 | 27.86580 | -83.62568 | 31223 ft | 496 kts | 86° |
| 2026-04-20 05:26 | 27.86736 | -83.58648 | 30725 ft | 494 kts | 86° |
| 2026-04-20 05:26 | 27.86897 | -83.54809 | 30219 ft | 493 kts | 86° |
| 2026-04-20 05:26 | 27.87050 | -83.50916 | 29601 ft | 492 kts | 87° |
| 2026-04-20 05:26 | 27.87207 | -83.47046 | 29023 ft | 490 kts | 86° |
| 2026-04-20 05:27 | 27.87363 | -83.43237 | 28479 ft | 488 kts | 87° |
| 2026-04-20 05:27 | 27.87511 | -83.39408 | 27947 ft | 485 kts | 87° |
| 2026-04-20 05:27 | 27.87654 | -83.35612 | 27434 ft | 482 kts | 87° |
| 2026-04-20 05:27 | 27.87793 | -83.31827 | 26898 ft | 478 kts | 87° |
| 2026-04-20 05:28 | 27.87940 | -83.28116 | 26374 ft | 475 kts | 87° |
| 2026-04-20 05:28 | 27.88006 | -83.24392 | 25886 ft | 470 kts | 89° |
| 2026-04-20 05:28 | 27.88024 | -83.20708 | 25482 ft | 464 kts | 89° |
| 2026-04-20 05:28 | 27.88036 | -83.17128 | 25150 ft | 456 kts | 89° |
| 2026-04-20 05:29 | 27.88048 | -83.13560 | 24848 ft | 448 kts | 89° |
| 2026-04-20 05:29 | 27.88057 | -83.10074 | 24552 ft | 439 kts | 90° |
| 2026-04-20 05:29 | 27.88060 | -83.06651 | 24274 ft | 431 kts | 90° |
| 2026-04-20 05:29 | 27.88064 | -83.03316 | 24007 ft | 424 kts | 90° |
| 2026-04-20 05:30 | 27.88065 | -83.00013 | 23735 ft | 416 kts | 90° |
| 2026-04-20 05:30 | 27.88064 | -82.96759 | 23446 ft | 409 kts | 90° |
| 2026-04-20 05:30 | 27.88064 | -82.93583 | 23165 ft | 402 kts | 90° |
| 2026-04-20 05:30 | 27.88060 | -82.91490 | 22986 ft | 398 kts | 90° |
| 2026-04-20 05:31 | 27.88057 | -82.87366 | 22640 ft | 394 kts | 90° |
| 2026-04-20 05:31 | 27.88056 | -82.85271 | 22470 ft | 393 kts | 90° |
| 2026-04-20 05:31 | 27.88053 | -82.82216 | 22219 ft | 392 kts | 90° |
| 2026-04-20 05:31 | 27.88045 | -82.79141 | 21962 ft | 390 kts | 90° |
| 2026-04-20 05:32 | 27.88033 | -82.75082 | 21628 ft | 391 kts | 90° |
| 2026-04-20 05:32 | 27.88030 | -82.72962 | 21473 ft | 406 kts | 90° |
| 2026-04-20 05:32 | 27.88022 | -82.69736 | 21236 ft | 410 kts | 90° |
| 2026-04-20 05:32 | 27.88016 | -82.66556 | 21108 ft | 408 kts | 90° |
| 2026-04-20 05:33 | 27.87982 | -82.63357 | 20900 ft | 401 kts | 91° |
| 2026-04-20 05:33 | 27.87930 | -82.60232 | 20624 ft | 393 kts | 91° |
| 2026-04-20 05:33 | 27.87881 | -82.57201 | 20372 ft | 386 kts | 91° |
| 2026-04-20 05:33 | 27.87833 | -82.54165 | 20123 ft | 380 kts | 91° |
| 2026-04-20 05:34 | 27.87788 | -82.51234 | 19887 ft | 375 kts | 91° |
| 2026-04-20 05:34 | 27.87747 | -82.48276 | 19658 ft | 375 kts | 91° |
| 2026-04-20 05:34 | 27.87695 | -82.42423 | 19208 ft | 374 kts | 88° |
| 2026-04-20 05:35 | 27.88159 | -82.39485 | 19020 ft | 382 kts | 68° |
| 2026-04-20 05:35 | 27.89228 | -82.36738 | 18543 ft | 381 kts | 61° |
| 2026-04-20 05:35 | 27.90400 | -82.34032 | 17859 ft | 385 kts | 61° |
| 2026-04-20 05:35 | 27.91563 | -82.31295 | 17089 ft | 392 kts | 62° |
| 2026-04-20 05:36 | 27.92718 | -82.28489 | 16471 ft | 393 kts | 63° |
| 2026-04-20 05:36 | 27.93847 | -82.25692 | 16062 ft | 387 kts | 63° |
| 2026-04-20 05:36 | 27.94956 | -82.22938 | 15795 ft | 378 kts | 63° |
| 2026-04-20 05:36 | 27.96020 | -82.20284 | 15540 ft | 369 kts | 63° |
| 2026-04-20 05:37 | 27.97068 | -82.17662 | 15283 ft | 362 kts | 63° |
| 2026-04-20 05:37 | 27.98097 | -82.15089 | 15030 ft | 356 kts | 63° |
| 2026-04-20 05:37 | 27.99108 | -82.12557 | 14769 ft | 350 kts | 63° |
| 2026-04-20 05:37 | 28.00104 | -82.10061 | 14511 ft | 345 kts | 64° |
| 2026-04-20 05:38 | 28.01076 | -82.07625 | 14233 ft | 340 kts | 63° |
| 2026-04-20 05:38 | 28.02050 | -82.05188 | 13975 ft | 335 kts | 64° |
| 2026-04-20 05:38 | 28.03004 | -82.02795 | 13687 ft | 331 kts | 64° |
| 2026-04-20 05:38 | 28.03932 | -82.00462 | 13419 ft | 329 kts | 64° |
| 2026-04-20 05:39 | 28.04870 | -81.98104 | 13156 ft | 327 kts | 64° |
| 2026-04-20 05:39 | 28.05803 | -81.95759 | 12865 ft | 325 kts | 64° |
| 2026-04-20 05:39 | 28.06751 | -81.93428 | 12460 ft | 324 kts | 63° |
| 2026-04-20 05:39 | 28.07686 | -81.91144 | 12070 ft | 321 kts | 63° |
| 2026-04-20 05:40 | 28.08624 | -81.88846 | 11710 ft | 318 kts | 63° |
| 2026-04-20 05:40 | 28.09619 | -81.86607 | 11340 ft | 316 kts | 60° |
| 2026-04-20 05:40 | 28.10626 | -81.84444 | 10973 ft | 313 kts | 60° |
| 2026-04-20 05:40 | 28.11640 | -81.82272 | 10628 ft | 309 kts | 60° |
| 2026-04-20 05:41 | 28.12518 | -81.80070 | 10277 ft | 304 kts | 74° |
| 2026-04-20 05:41 | 28.12695 | -81.77719 | 9973 ft | 298 kts | 95° |
| 2026-04-20 05:41 | 28.12422 | -81.75408 | 9678 ft | 291 kts | 99° |
| 2026-04-20 05:41 | 28.12105 | -81.73188 | 9413 ft | 287 kts | 99° |
| 2026-04-20 05:42 | 28.11796 | -81.70946 | 9166 ft | 287 kts | 99° |
| 2026-04-20 05:42 | 28.11507 | -81.68722 | 8931 ft | 283 kts | 98° |
| 2026-04-20 05:42 | 28.11230 | -81.66524 | 8677 ft | 280 kts | 98° |
| 2026-04-20 05:42 | 28.10963 | -81.64373 | 8446 ft | 277 kts | 99° |
| 2026-04-20 05:43 | 28.10697 | -81.62221 | 8209 ft | 274 kts | 99° |
| 2026-04-20 05:43 | 28.10435 | -81.60085 | 7971 ft | 273 kts | 99° |
| 2026-04-20 05:43 | 28.10171 | -81.57953 | 7739 ft | 272 kts | 99° |
| 2026-04-20 05:43 | 28.09912 | -81.55852 | 7520 ft | 271 kts | 99° |
| 2026-04-20 05:44 | 28.09651 | -81.53740 | 7288 ft | 269 kts | 99° |
| 2026-04-20 05:44 | 28.09388 | -81.51643 | 7092 ft | 266 kts | 100° |
| 2026-04-20 05:44 | 28.09132 | -81.49608 | 6959 ft | 260 kts | 100° |
| 2026-04-20 05:44 | 28.08885 | -81.47607 | 6938 ft | 255 kts | 99° |
| 2026-04-20 05:45 | 28.08644 | -81.45656 | 6940 ft | 243 kts | 100° |
| 2026-04-20 05:45 | 28.08410 | -81.43762 | 6949 ft | 242 kts | 100° |
| 2026-04-20 05:45 | 28.08180 | -81.41899 | 6959 ft | 242 kts | 98° |
| 2026-04-20 05:45 | 28.08140 | -81.39975 | 6707 ft | 244 kts | 90° |
| 2026-04-20 05:46 | 28.08191 | -81.38058 | 6407 ft | 242 kts | 90° |
| 2026-04-20 05:46 | 28.08238 | -81.36160 | 6071 ft | 239 kts | 90° |
| 2026-04-20 05:46 | 28.08277 | -81.34288 | 5820 ft | 233 kts | 90° |
| 2026-04-20 05:46 | 28.08308 | -81.32504 | 5635 ft | 223 kts | 90° |
| 2026-04-20 05:47 | 28.08415 | -81.30797 | 5400 ft | 213 kts | 75° |
| 2026-04-20 05:47 | 28.09097 | -81.29378 | 5154 ft | 201 kts | 46° |
| 2026-04-20 05:47 | 28.10265 | -81.28568 | 4824 ft | 197 kts | 18° |
| 2026-04-20 05:47 | 28.11596 | -81.28376 | 4441 ft | 194 kts | 1° |
| 2026-04-20 05:48 | 28.12939 | -81.28319 | 4097 ft | 192 kts | 5° |
| 2026-04-20 05:48 | 28.14271 | -81.28223 | 3780 ft | 190 kts | 5° |
| 2026-04-20 05:48 | 28.15574 | -81.28154 | 3460 ft | 189 kts | 4° |
| 2026-04-20 05:48 | 28.16884 | -81.28115 | 3141 ft | 186 kts | 4° |
| 2026-04-20 05:49 | 28.18166 | -81.28094 | 2988 ft | 183 kts | 4° |
| 2026-04-20 05:49 | 28.19420 | -81.28032 | 2970 ft | 183 kts | 3° |
| 2026-04-20 05:49 | 28.20695 | -81.28030 | 2973 ft | 183 kts | 2° |
| 2026-04-20 05:49 | 28.21971 | -81.28039 | 2983 ft | 182 kts | 2° |
| 2026-04-20 05:50 | 28.23243 | -81.28050 | 2988 ft | 183 kts | 2° |
| 2026-04-20 05:50 | 28.24512 | -81.28063 | 2990 ft | 183 kts | 2° |
| 2026-04-20 05:50 | 28.25794 | -81.28075 | 3004 ft | 183 kts | 2° |
| 2026-04-20 05:50 | 28.27066 | -81.28088 | 2921 ft | 181 kts | 2° |
| 2026-04-20 05:51 | 28.28327 | -81.28101 | 2754 ft | 178 kts | 2° |
| 2026-04-20 05:51 | 28.29486 | -81.28113 | 2534 ft | 159 kts | 3° |
| 2026-04-20 05:51 | 28.30540 | -81.28124 | 2323 ft | 143 kts | 4° |
| 2026-04-20 05:51 | 28.31518 | -81.28134 | 2135 ft | 138 kts | 3° |
| 2026-04-20 05:52 | 28.32463 | -81.28143 | 1964 ft | 136 kts | 5° |
| 2026-04-20 05:52 | 28.33399 | -81.28152 | 1819 ft | 133 kts | 4° |
| 2026-04-20 05:52 | 28.34316 | -81.28160 | 1640 ft | 131 kts | 4° |
| 2026-04-20 05:52 | 28.35226 | -81.28169 | 1395 ft | 129 kts | 4° |
| 2026-04-20 05:53 | 28.36121 | -81.28186 | 1228 ft | 131 kts | 4° |
| 2026-04-20 05:53 | 28.37036 | -81.28187 | 1078 ft | 132 kts | 4° |
| 2026-04-20 05:53 | 28.37952 | -81.28190 | 909 ft | 131 kts | 1° |
| 2026-04-20 05:53 | 28.38867 | -81.28211 | 743 ft | 135 kts | 2° |
| 2026-04-20 05:54 | 28.39793 | -81.28207 | 528 ft | 130 kts | 4° |
| 2026-04-20 05:54 | 28.40694 | -81.28221 | 362 ft | 130 kts | 4° |
| 2026-04-20 05:54 | 28.41610 | -81.28231 | 196 ft | 131 kts | 2° |
| 2026-04-20 05:54 | 28.42493 | -81.28240 | 112 ft | 117 kts | 2° |
| 2026-04-20 05:55 | 28.43166 | -81.28241 | 101 ft | 71 kts | 360° |
| 2026-04-20 05:55 | 28.43455 | -81.28263 | 104 ft | 18 kts | 343° |
| 2026-04-20 05:55 | 28.43543 | -81.28329 | 101 ft | 15 kts | 316° |
| 2026-04-20 05:55 | 28.43641 | -81.28377 | 102 ft | 18 kts | 2° |
| 2026-04-20 05:56 | 28.43782 | -81.28376 | 101 ft | 20 kts | 359° |
| 2026-04-20 05:56 | 28.43873 | -81.28434 | 102 ft | 18 kts | 289° |
| 2026-04-20 05:56 | 28.43872 | -81.28606 | 106 ft | 26 kts | 270° |
| 2026-04-20 05:56 | 28.43873 | -81.28771 | 112 ft | 21 kts | 269° |
| 2026-04-20 05:57 | 28.43871 | -81.28968 | 113 ft | 28 kts | 269° |
| 2026-04-20 05:57 | 28.43870 | -81.29151 | 107 ft | 22 kts | 270° |
| 2026-04-20 05:57 | 28.43841 | -81.29257 | 101 ft | 14 kts | 203° |
| 2026-04-20 05:57 | 28.43714 | -81.29262 | 103 ft | 21 kts | 179° |
| 2026-04-20 05:58 | 28.43605 | -81.29258 | 104 ft | 17 kts | 181° |
| 2026-04-20 05:58 | 28.43551 | -81.29349 | 101 ft | 18 kts | 268° |
| 2026-04-20 05:58 | 28.43551 | -81.29497 | 102 ft | 22 kts | 270° |
| 2026-04-20 05:58 | 28.43550 | -81.29670 | 101 ft | 18 kts | 270° |
| 2026-04-20 05:59 | 28.43549 | -81.29830 | 100 ft | 22 kts | 269° |
| 2026-04-20 05:59 | 28.43560 | -81.30002 | 100 ft | 15 kts | 264° |
| 2026-04-20 05:59 | 28.43549 | -81.30049 | 101 ft | 0 kts | 252° |